Main page
METAR-TAF:

METAR-TAF

Airports :

Marília Airport

Marília, São Paulo, Brazil

latitude: 22-11-44S, longitude: 049-55-37W, elevation: 647 m

Current weather observation

The report was made 4 hours and 12 minutes ago, at 19:00 UTC
Wind 15 kt from the West/Southwest
Temperature 18°C
Humidity 100%
Pressure 1018 hPa
Visibility: 8000 m
Scattered clouds at a height of 800 ft
Broken clouds at a height of 1400 ft
light rain

METAR: SBML 201900Z 25015KT 8000 -RA SCT008 BKN014 18/18 Q1018 RETS

Time: 20:12 (23:12 UTC)


TAF: missing

Weather observations and forecasts of more than 4000 airports (METAR and TAF reports).

The available stations are represented by yellow and red dots on the map.

Hover mouse over dot to see the name of the station.

Then click to see weather observations and forecasts.

To change the map : click on the green buttons with a black cross to zoom in, on the green button with a dash to zoom out, or on the green arrows for adjacent maps.


METAR-TAF: